createdAt,value
2022-09-16T00:04:40.780Z,0
2022-09-16T00:09:53.023Z,0
2022-09-16T00:15:05.332Z,0
2022-09-16T00:20:17.553Z,0
2022-09-16T00:25:29.772Z,1
2022-09-16T00:30:41.871Z,1
2022-09-16T00:35:54.051Z,1
2022-09-16T00:41:06.502Z,1
2022-09-16T00:46:18.918Z,1
2022-09-16T00:51:31.041Z,1
2022-09-16T00:56:43.292Z,0
2022-09-16T01:01:55.917Z,0
2022-09-16T01:07:07.989Z,0
2022-09-16T01:12:20.390Z,0
2022-09-16T01:17:32.661Z,0
2022-09-16T01:22:44.982Z,1
2022-09-16T01:27:57.300Z,0
2022-09-16T01:33:09.558Z,0
2022-09-16T01:38:21.850Z,0
2022-09-16T01:43:34.196Z,0
2022-09-16T01:48:53.933Z,0
2022-09-16T01:54:04.856Z,0
2022-09-16T01:59:17.123Z,0
2022-09-16T02:04:29.441Z,0
2022-09-16T02:09:41.741Z,0
2022-09-16T02:14:53.966Z,0
2022-09-16T02:20:06.228Z,0
2022-09-16T02:25:18.390Z,0
2022-09-16T02:30:30.844Z,0
2022-09-16T02:35:43.051Z,0
2022-09-16T02:40:55.171Z,0
2022-09-16T02:46:07.818Z,0
2022-09-16T02:51:19.912Z,0
2022-09-16T02:56:32.199Z,0
2022-09-16T03:01:44.917Z,0
2022-09-16T03:06:56.941Z,0
2022-09-16T03:12:09.100Z,0
2022-09-16T03:17:21.315Z,0
2022-09-16T03:22:33.476Z,0
2022-09-16T03:27:45.521Z,0
2022-09-16T03:32:57.817Z,0
2022-09-16T03:38:10.019Z,0
2022-09-16T03:43:22.183Z,0
2022-09-16T03:48:34.424Z,0
2022-09-16T03:53:46.655Z,0
2022-09-16T03:58:58.792Z,0
2022-09-16T04:04:10.785Z,0
2022-09-16T04:09:23.066Z,0
2022-09-16T04:14:35.453Z,0
2022-09-16T04:19:47.766Z,0
2022-09-16T04:24:59.927Z,0
2022-09-16T04:30:12.230Z,0
2022-09-16T04:35:24.606Z,0
2022-09-16T04:40:37.018Z,0
2022-09-16T04:51:01.455Z,0
2022-09-16T04:56:13.849Z,0
2022-09-16T05:01:26.521Z,0
2022-09-16T05:06:38.839Z,0
2022-09-16T05:11:50.922Z,0
2022-09-16T05:17:03.140Z,0
2022-09-16T05:22:15.898Z,0
2022-09-16T05:27:27.964Z,0
2022-09-16T05:32:40.221Z,0
2022-09-16T05:43:05.351Z,0
2022-09-16T05:48:17.914Z,0
2022-09-16T05:53:30.746Z,0
2022-09-16T05:58:42.872Z,0
2022-09-16T06:03:55.564Z,0
2022-09-16T06:09:08.257Z,0
2022-09-16T06:14:20.677Z,0
2022-09-16T06:19:33.190Z,0
2022-09-16T06:24:46.034Z,0
2022-09-16T06:29:58.470Z,1
2022-09-16T06:35:10.833Z,1
2022-09-16T06:40:24.002Z,1
2022-09-16T06:45:36.741Z,2
2022-09-16T06:50:49.462Z,3
2022-09-16T06:56:02.480Z,4
2022-09-16T07:01:15.691Z,5
2022-09-16T07:07:11.149Z,6
2022-09-16T07:12:21.290Z,6
2022-09-16T07:17:32.971Z,8
2022-09-16T07:22:45.443Z,10
2022-09-16T07:27:58.494Z,10
2022-09-16T07:33:11.182Z,13
2022-09-16T07:38:23.960Z,14
2022-09-16T07:43:37.284Z,16
2022-09-16T07:48:49.882Z,21
2022-09-16T07:54:02.820Z,27
2022-09-16T07:59:20.274Z,27
2022-09-16T08:04:34.991Z,30
2022-09-16T08:15:07.421Z,31
2022-09-16T08:20:20.009Z,31
2022-09-16T08:25:32.441Z,32
2022-09-16T08:30:46.122Z,28
2022-09-16T08:36:05.520Z,30
2022-09-16T08:41:17.841Z,28
2022-09-16T08:46:30.835Z,30
2022-09-16T08:51:43.313Z,29
2022-09-16T08:56:55.741Z,30
2022-09-16T09:02:12.734Z,30
2022-09-16T09:07:26.280Z,27
2022-09-16T09:12:43.330Z,30
2022-09-16T09:17:57.911Z,29
2022-09-16T09:23:10.531Z,31
2022-09-16T09:38:44.245Z,31
2022-09-16T09:43:57.384Z,33
2022-09-16T09:49:09.943Z,31
2022-09-16T09:54:23.095Z,34
2022-09-16T09:59:35.712Z,33
2022-09-16T10:04:48.384Z,32
2022-09-16T10:10:02.008Z,35
2022-09-16T10:15:14.768Z,36
2022-09-16T10:20:27.622Z,78
2022-09-16T10:25:40.966Z,79
2022-09-16T10:30:53.520Z,82
2022-09-16T10:36:06.358Z,83
2022-09-16T10:41:19.949Z,84
2022-09-16T10:46:33.028Z,85
2022-09-16T10:51:47.579Z,85
2022-09-16T10:57:01.890Z,86
2022-09-16T11:02:16.156Z,86
2022-09-16T11:07:29.380Z,86
2022-09-16T11:12:43.068Z,85
2022-09-16T11:17:56.870Z,84
2022-09-16T11:33:33.717Z,83
2022-09-16T11:38:48.092Z,80
2022-09-16T11:44:01.587Z,80
2022-09-16T11:49:16.362Z,80
2022-09-16T11:54:30.007Z,78
2022-09-16T11:59:43.900Z,77
2022-09-16T12:10:08.232Z,75
2022-09-16T12:20:31.420Z,79
2022-09-16T12:36:04.828Z,81
2022-09-16T12:41:18.322Z,79
2022-09-16T12:51:42.951Z,86
2022-09-16T12:57:00.586Z,87
2022-09-16T13:02:14.012Z,85
2022-09-16T13:12:46.094Z,88
2022-09-16T13:18:00.882Z,89
2022-09-16T13:23:13.582Z,90
2022-09-16T13:33:37.676Z,90
2022-09-16T13:54:22.804Z,93
2022-09-16T13:59:35.549Z,93
2022-09-16T14:09:58.959Z,93
2022-09-16T14:20:21.985Z,93
2022-09-16T14:30:46.008Z,94
2022-09-16T14:35:58.975Z,93
2022-09-16T14:41:11.845Z,94
2022-09-16T15:01:57.433Z,94
2022-09-16T15:07:13.565Z,94
2022-09-16T15:12:28.318Z,93
2022-09-16T15:17:41.788Z,94
2022-09-16T15:22:54.218Z,94
2022-09-16T15:28:06.828Z,94
2022-09-16T15:33:20.204Z,94
2022-09-16T15:43:44.058Z,94
2022-09-16T15:48:57.043Z,94
2022-09-16T15:54:09.593Z,94
2022-09-16T15:59:22.268Z,95
2022-09-16T16:04:35.400Z,94
2022-09-16T16:09:48.298Z,95
2022-09-16T16:15:01.037Z,95
2022-09-16T16:20:14.352Z,95
2022-09-16T16:25:26.794Z,95
2022-09-16T16:35:49.895Z,94
2022-09-16T16:41:02.346Z,93
2022-09-16T16:46:15.510Z,93
2022-09-16T16:51:33.483Z,92
2022-09-16T17:01:59.803Z,88
2022-09-16T17:07:29.548Z,88
2022-09-16T17:12:39.308Z,87
2022-09-16T17:23:05.350Z,83
2022-09-16T17:28:17.833Z,81
2022-09-16T17:33:30.397Z,79
2022-09-16T17:38:43.324Z,77
2022-09-16T17:43:55.758Z,76
2022-09-16T17:49:07.971Z,74
2022-09-16T17:54:20.936Z,73
2022-09-16T17:59:33.182Z,73
2022-09-16T18:04:45.836Z,71
2022-09-16T18:09:58.533Z,70
2022-09-16T18:15:10.762Z,69
2022-09-16T18:20:23.072Z,67
2022-09-16T18:25:35.947Z,66
2022-09-16T18:30:48.371Z,66
2022-09-16T18:36:00.591Z,65
2022-09-16T18:41:13.311Z,64
2022-09-16T18:46:28.226Z,63
2022-09-16T18:51:39.980Z,62
2022-09-16T18:56:53.101Z,55
2022-09-16T19:02:06.203Z,55
2022-09-16T19:07:18.531Z,54
2022-09-16T19:12:39.058Z,54
2022-09-16T19:17:50.162Z,54
2022-09-16T19:23:02.251Z,54
2022-09-16T19:28:15.297Z,53
2022-09-16T19:33:28.232Z,53
2022-09-16T19:38:40.606Z,52
2022-09-16T19:44:00.299Z,53
2022-09-16T19:49:14.652Z,53
2022-09-16T19:54:27.113Z,48
2022-09-16T19:59:40.291Z,50
2022-09-16T20:10:05.081Z,52
2022-09-16T20:15:18.075Z,53
2022-09-16T20:20:30.291Z,54
2022-09-16T20:25:43.591Z,47
2022-09-16T20:30:56.164Z,50
2022-09-16T20:36:08.431Z,51
2022-09-16T20:41:22.296Z,52
2022-09-16T20:46:34.995Z,52
2022-09-16T20:51:47.901Z,52
2022-09-16T20:57:00.311Z,52
2022-09-16T21:02:13.668Z,52
2022-09-16T21:07:25.912Z,52
2022-09-16T21:12:38.421Z,52
2022-09-16T21:17:51.157Z,45
2022-09-16T21:23:03.311Z,47
2022-09-16T21:28:15.645Z,47
2022-09-16T21:33:28.423Z,45
2022-09-16T21:38:41.254Z,44
2022-09-16T21:43:53.451Z,45
2022-09-16T21:49:06.109Z,44
2022-09-16T21:54:21.526Z,37
2022-09-16T21:59:33.307Z,37
2022-09-16T22:04:46.110Z,36
2022-09-16T22:09:58.337Z,35
2022-09-16T22:15:10.548Z,35
2022-09-16T22:20:23.236Z,33
2022-09-16T22:25:35.338Z,31
2022-09-16T22:30:47.640Z,28
2022-09-16T22:36:00.364Z,26
2022-09-16T22:41:12.526Z,25
2022-09-16T22:46:25.242Z,25
2022-09-16T22:51:38.130Z,24
2022-09-16T23:02:02.640Z,21
2022-09-16T23:07:15.478Z,20
2022-09-16T23:12:27.646Z,21
2022-09-16T23:17:39.956Z,21
2022-09-16T23:22:52.731Z,21
2022-09-16T23:28:05.026Z,21
2022-09-16T23:33:17.187Z,21
2022-09-16T23:38:29.897Z,21
2022-09-16T23:43:42.017Z,22
2022-09-16T23:48:54.227Z,23
2022-09-16T23:54:07.207Z,23
2022-09-16T23:59:19.316Z,25
